createdAt,value
2022-09-12T00:01:07.720Z,4123
2022-09-12T00:06:22.762Z,4166
2022-09-12T00:11:32.327Z,4138
2022-09-12T00:16:44.674Z,4125
2022-09-12T00:21:56.828Z,4121
2022-09-12T00:27:09.283Z,4110
2022-09-12T00:32:21.475Z,4160
2022-09-12T00:37:33.797Z,4129
2022-09-12T00:42:45.846Z,4121
2022-09-12T00:47:58.146Z,4132
2022-09-12T00:53:10.468Z,4121
2022-09-12T00:58:22.935Z,4121
2022-09-12T01:03:35.130Z,4131
2022-09-12T01:08:47.453Z,4157
2022-09-12T01:13:59.795Z,4116
2022-09-12T01:19:12.085Z,4134
2022-09-12T01:24:24.632Z,4116
2022-09-12T01:29:36.867Z,4129
2022-09-12T01:34:49.156Z,4131
2022-09-12T01:40:01.524Z,4127
2022-09-12T01:45:14.293Z,4071
2022-09-12T01:50:26.530Z,4097
2022-09-12T01:55:38.667Z,4145
2022-09-12T02:00:50.972Z,4095
2022-09-12T02:06:03.418Z,4116
2022-09-12T02:11:15.821Z,4131
2022-09-12T02:16:28.613Z,4145
2022-09-12T02:21:40.799Z,4123
2022-09-12T02:26:53.107Z,4097
2022-09-12T02:32:05.615Z,4118
2022-09-12T02:37:17.947Z,4140
2022-09-12T02:42:30.343Z,4099
2022-09-12T02:47:42.727Z,4097
2022-09-12T02:52:55.027Z,4123
2022-09-12T02:58:07.258Z,4099
2022-09-12T03:03:19.729Z,4034
2022-09-12T03:08:31.981Z,4067
2022-09-12T03:13:44.434Z,4105
2022-09-12T03:18:56.572Z,4155
2022-09-12T03:24:09.089Z,4069
2022-09-12T03:29:21.407Z,4129
2022-09-12T03:34:33.760Z,4138
2022-09-12T03:39:46.118Z,4073
2022-09-12T03:44:58.567Z,4118
2022-09-12T03:50:10.876Z,4121
2022-09-12T03:55:23.226Z,4147
2022-09-12T04:00:35.651Z,4147
2022-09-12T04:05:48.196Z,4142
2022-09-12T04:11:00.513Z,4145
2022-09-12T04:16:12.784Z,4119
2022-09-12T04:21:25.178Z,4129
2022-09-12T04:26:37.261Z,4099
2022-09-12T04:31:49.885Z,4084
2022-09-12T04:37:02.124Z,4086
2022-09-12T04:42:14.542Z,4138
2022-09-12T04:47:26.729Z,4106
2022-09-12T04:52:38.892Z,4119
2022-09-12T04:57:51.299Z,4041
2022-09-12T05:03:03.533Z,4121
2022-09-12T05:08:15.868Z,4138
2022-09-12T05:13:28.132Z,4136
2022-09-12T05:18:40.589Z,4118
2022-09-12T05:23:52.930Z,4084
2022-09-12T05:29:05.200Z,4123
2022-09-12T05:34:17.463Z,4052
2022-09-12T05:39:29.913Z,4078
2022-09-12T05:44:42.607Z,4114
2022-09-12T05:49:54.952Z,4112
2022-09-12T05:55:07.206Z,4099
2022-09-12T06:00:19.688Z,4110
2022-09-12T06:05:31.985Z,4099
2022-09-12T06:10:44.574Z,4114
2022-09-12T06:15:56.772Z,4110
2022-09-12T06:21:09.188Z,3941
2022-09-12T06:26:21.729Z,4092
2022-09-12T06:31:33.937Z,4054
2022-09-12T06:36:46.238Z,4043
2022-09-12T06:41:58.707Z,4114
2022-09-12T06:47:10.881Z,4049
2022-09-12T06:52:23.452Z,4093
2022-09-12T06:57:35.800Z,4106
2022-09-12T07:02:48.315Z,4116
2022-09-12T07:08:00.732Z,3853
2022-09-12T07:13:12.979Z,4106
2022-09-12T07:18:25.373Z,4134
2022-09-12T07:23:37.798Z,4090
2022-09-12T07:28:50.341Z,4132
2022-09-12T07:34:02.551Z,4131
2022-09-12T07:44:27.182Z,4088
2022-09-12T07:49:42.772Z,4131
2022-09-12T07:54:55.007Z,4049
2022-09-12T08:00:07.345Z,4078
2022-09-12T08:10:32.045Z,4106
2022-09-12T08:15:44.608Z,4125
2022-09-12T08:20:56.943Z,4131
2022-09-12T08:26:09.228Z,4036
2022-09-12T08:31:21.813Z,4105
2022-09-12T08:36:34.436Z,4131
2022-09-12T08:41:46.885Z,4093
2022-09-12T08:46:59.186Z,4064
2022-09-12T08:52:11.459Z,4134
2022-09-12T08:57:23.918Z,4099
2022-09-12T09:02:36.439Z,4086
2022-09-12T09:07:48.625Z,4136
2022-09-12T09:13:01.012Z,4125
2022-09-12T09:18:13.546Z,4105
2022-09-12T09:23:25.813Z,4136
2022-09-12T09:28:38.146Z,4155
2022-09-12T09:33:50.490Z,4125
2022-09-12T09:39:02.998Z,4108
2022-09-12T09:44:15.342Z,4145
2022-09-12T09:49:27.849Z,4153
2022-09-12T09:54:40.208Z,4134
2022-09-12T09:59:52.796Z,4186
2022-09-12T10:05:05.382Z,4188
2022-09-12T10:10:18.089Z,4168
2022-09-12T10:15:30.600Z,4198
2022-09-12T10:20:42.958Z,4069
2022-09-12T10:25:55.554Z,4151
2022-09-12T10:31:07.839Z,4203
2022-09-12T10:36:20.228Z,4214
2022-09-12T10:41:32.430Z,4190
2022-09-12T10:46:44.765Z,4209
2022-09-12T10:51:57.316Z,4203
2022-09-12T10:57:09.730Z,4227
2022-09-12T11:02:22.569Z,4205
2022-09-12T11:07:34.980Z,4198
2022-09-12T11:12:47.307Z,4211
2022-09-12T11:17:59.733Z,4196
2022-09-12T11:23:11.871Z,4183
2022-09-12T11:28:24.250Z,4225
2022-09-12T11:33:40.950Z,4181
2022-09-12T11:38:49.525Z,4216
2022-09-12T11:44:01.817Z,4224
2022-09-12T11:49:14.144Z,4248
2022-09-12T11:54:26.549Z,4227
2022-09-12T11:59:38.801Z,4238
2022-09-12T12:04:51.449Z,4229
2022-09-12T12:10:03.791Z,4227
2022-09-12T12:15:16.184Z,4231
2022-09-12T12:20:28.435Z,4214
2022-09-12T12:25:41.341Z,4251
2022-09-12T12:30:53.737Z,4194
2022-09-12T12:36:06.198Z,4229
2022-09-12T12:41:18.752Z,4242
2022-09-12T12:46:31.189Z,4227
2022-09-12T12:51:43.498Z,4250
2022-09-12T12:56:55.727Z,4237
2022-09-12T13:02:08.490Z,4170
2022-09-12T13:07:20.761Z,4231
2022-09-12T13:12:33.214Z,4216
2022-09-12T13:17:45.509Z,4207
2022-09-12T13:22:58.359Z,4190
2022-09-12T13:28:10.740Z,4218
2022-09-12T13:33:23.121Z,4186
2022-09-12T13:38:35.565Z,4246
2022-09-12T13:43:47.757Z,4207
2022-09-12T13:49:00.260Z,4220
2022-09-12T13:54:12.616Z,4212
2022-09-12T13:59:24.745Z,4248
2022-09-12T14:04:37.246Z,4207
2022-09-12T14:09:49.589Z,4214
2022-09-12T14:20:14.445Z,4237
2022-09-12T14:25:26.537Z,4244
2022-09-12T14:30:38.954Z,4231
2022-09-12T14:35:51.048Z,4242
2022-09-12T14:41:03.250Z,4205
2022-09-12T14:46:15.893Z,4229
2022-09-12T14:51:28.142Z,4227
2022-09-12T14:56:40.334Z,4209
2022-09-12T15:01:52.747Z,4231
2022-09-12T15:07:05.009Z,4201
2022-09-12T15:12:17.431Z,4222
2022-09-12T15:17:29.664Z,4224
2022-09-12T15:22:42.120Z,4214
2022-09-12T15:27:54.495Z,4231
2022-09-12T15:33:07.003Z,4194
2022-09-12T15:38:21.999Z,4207
2022-09-12T15:43:31.774Z,4233
2022-09-12T15:48:44.141Z,4220
2022-09-12T15:53:56.438Z,4198
2022-09-12T15:59:08.661Z,4216
2022-09-12T16:04:21.086Z,4209
2022-09-12T16:09:33.096Z,4233
2022-09-12T16:14:45.315Z,4211
2022-09-12T16:19:57.681Z,4220
2022-09-12T16:25:09.875Z,4196
2022-09-12T16:30:22.282Z,4207
2022-09-12T16:35:34.720Z,4142
2022-09-12T16:40:47.111Z,4125
2022-09-12T16:45:59.749Z,4227
2022-09-12T16:51:12.021Z,4214
2022-09-12T17:02:52.163Z,4205
2022-09-12T17:08:04.298Z,4183
2022-09-12T17:13:16.633Z,4171
2022-09-12T17:18:28.894Z,4203
2022-09-12T17:23:41.421Z,4225
2022-09-12T17:28:53.915Z,4201
2022-09-12T17:34:06.197Z,4188
2022-09-12T17:39:18.574Z,4186
2022-09-12T17:44:30.847Z,4222
2022-09-12T17:49:43.268Z,4224
2022-09-12T17:54:55.678Z,4157
2022-09-12T18:00:08.376Z,4224
2022-09-12T18:05:20.800Z,4192
2022-09-12T18:10:33.178Z,4222
2022-09-12T18:15:45.954Z,4186
2022-09-12T18:20:58.279Z,4181
2022-09-12T18:26:10.568Z,4220
2022-09-12T18:31:22.914Z,4214
2022-09-12T18:36:35.257Z,4212
2022-09-12T18:41:47.717Z,4158
2022-09-12T18:47:00.003Z,4218
2022-09-12T18:52:12.441Z,4205
2022-09-12T18:57:24.862Z,4216
2022-09-12T19:02:37.389Z,4177
2022-09-12T19:07:49.709Z,4190
2022-09-12T19:13:02.132Z,4188
2022-09-12T19:18:14.354Z,4214
2022-09-12T19:23:26.749Z,4196
2022-09-12T19:28:39.127Z,4199
2022-09-12T19:39:03.720Z,4157
2022-09-12T19:44:16.072Z,4181
2022-09-12T19:49:28.296Z,4207
2022-09-12T19:54:40.570Z,4207
2022-09-12T19:59:52.810Z,4209
2022-09-12T20:05:05.098Z,4194
2022-09-12T20:10:17.676Z,4145
2022-09-12T20:15:30.085Z,4205
2022-09-12T20:20:42.212Z,4149
2022-09-12T20:25:54.549Z,4188
2022-09-12T20:31:06.786Z,4127
2022-09-12T20:36:19.079Z,4190
2022-09-12T20:41:31.384Z,4201
2022-09-12T20:46:43.693Z,4201
2022-09-12T20:51:55.969Z,4147
2022-09-12T20:57:08.395Z,4199
2022-09-12T21:02:20.957Z,4185
2022-09-12T21:07:33.080Z,4170
2022-09-12T21:12:45.437Z,4185
2022-09-12T21:17:57.805Z,4181
2022-09-12T21:23:10.219Z,4162
2022-09-12T21:28:22.633Z,4105
2022-09-12T21:33:35.172Z,4166
2022-09-12T21:38:47.420Z,4155
2022-09-12T21:43:59.912Z,4082
2022-09-12T21:49:12.159Z,4175
2022-09-12T21:54:24.577Z,4129
2022-09-12T21:59:36.793Z,4086
2022-09-12T22:04:49.159Z,4162
2022-09-12T22:10:01.432Z,4119
2022-09-12T22:15:38.694Z,4177
2022-09-12T22:20:26.005Z,4196
2022-09-12T22:25:38.513Z,4181
2022-09-12T22:30:50.825Z,4186
2022-09-12T22:36:03.009Z,4194
2022-09-12T22:41:15.280Z,4160
2022-09-12T22:46:27.884Z,4194
2022-09-12T22:51:40.251Z,4179
2022-09-12T22:56:52.635Z,4140
2022-09-12T23:02:04.810Z,4175
2022-09-12T23:07:17.390Z,4192
2022-09-12T23:12:29.706Z,4158
2022-09-12T23:17:42.166Z,4160
2022-09-12T23:22:54.594Z,4192
2022-09-12T23:28:06.932Z,4155
2022-09-12T23:33:19.217Z,4173
2022-09-12T23:38:31.573Z,4171
2022-09-12T23:43:43.757Z,4092
2022-09-12T23:48:56.083Z,4123
2022-09-12T23:54:09.028Z,4173
2022-09-12T23:59:21.252Z,4058
